Terminal Aerodrome Forecast
Issued by NWS

Home | Current Version | Previous Version | Text Only | Print | Product List | Glossary On
Versions: 1 2 3 4 5 6 7 8 9 10 11 12 13 14 15 16 17 18 19 20 21 22
000
FTPA31 PHFO 230000 AAA
TAFOGG
TAF AMD
PHOG 230058Z 2301/2324 36011KT P6SM SCT025 SCT080
      TEMPO 2301/2303 3SM RA BKN025
     FM230500 02010KT P6SM VCSH SCT020 BKN045
      AMD LTD TO WX VIS AND WIND 2309/2316=

USA.gov is the U.S. government's official web portal to all federal, state and local government web resources and services.